Terminal Aerodrome Forecast
Issued by NWS Wilmington, OH

Current Version | Previous Version | Graphics & Text | Print | Product List | Glossary On
Versions: 1 2 3 4 5 6 7 8 9 10 11 12 13 14 15 16 17 18 19 20 21 22 23 24
000
FTUS41 KILN 150539
TAFDAY
TAF
KDAY 150539Z 1506/1606 15009KT P6SM -SN BKN035 OVC070
      TEMPO 1508/1511 3SM -SN BKN025
     FM151600 18012G22KT 1SM -SN OVC022
     FM152000 22012G22KT 3SM -SN OVC025
     FM152300 21010G18KT P6SM VCSH OVC012=

USA.gov is the U.S. government's official web portal to all federal, state and local government web resources and services.